createdAt,value
2018-05-26T00:00:56.174Z,99.90
2018-05-26T00:03:23.856Z,99.90
2018-05-26T00:05:52.235Z,99.90
2018-05-26T00:08:20.603Z,99.90
2018-05-26T00:10:49.171Z,99.90
2018-05-26T00:13:16.748Z,99.90
2018-05-26T00:15:44.351Z,99.90
2018-05-26T00:18:11.939Z,99.90
2018-05-26T00:20:39.534Z,99.90
2018-05-26T00:23:07.168Z,99.90
2018-05-26T00:25:34.789Z,99.90
2018-05-26T00:28:03.100Z,99.90
2018-05-26T00:30:30.684Z,99.90
2018-05-26T00:32:58.278Z,99.90
2018-05-26T00:35:25.897Z,99.90
2018-05-26T00:37:53.509Z,99.90
2018-05-26T00:40:21.123Z,99.90
2018-05-26T00:42:48.724Z,99.90
2018-05-26T00:45:16.348Z,99.90
2018-05-26T00:47:43.914Z,99.90
2018-05-26T00:50:11.543Z,99.90
2018-05-26T00:52:39.100Z,99.90
2018-05-26T00:55:07.490Z,99.90
2018-05-26T00:57:35.101Z,99.90
2018-05-26T01:00:02.672Z,99.90
2018-05-26T01:02:31.291Z,99.90
2018-05-26T01:04:58.887Z,99.90
2018-05-26T01:07:27.278Z,99.90
2018-05-26T01:09:54.903Z,99.90
2018-05-26T01:12:22.522Z,99.90
2018-05-26T01:14:50.153Z,99.90
2018-05-26T01:17:18.520Z,99.90
2018-05-26T01:19:46.089Z,99.90
2018-05-26T01:22:14.495Z,99.90
2018-05-26T01:24:42.143Z,99.90
2018-05-26T01:27:09.784Z,99.90
2018-05-26T01:29:38.154Z,99.90
2018-05-26T01:32:05.747Z,99.90
2018-05-26T01:34:33.327Z,99.90
2018-05-26T01:37:00.945Z,99.90
2018-05-26T01:39:29.305Z,99.90
2018-05-26T01:41:56.958Z,99.90
2018-05-26T01:44:24.543Z,99.90
2018-05-26T01:46:52.104Z,99.90
2018-05-26T01:49:19.767Z,99.90
2018-05-26T01:51:47.405Z,99.90
2018-05-26T01:54:15.008Z,99.90
2018-05-26T01:56:43.957Z,99.90
2018-05-26T01:59:11.542Z,99.90
2018-05-26T02:01:39.094Z,99.90
2018-05-26T02:04:06.703Z,99.90
2018-05-26T02:06:34.327Z,99.90
2018-05-26T02:09:02.714Z,99.90
2018-05-26T02:11:30.325Z,99.90
2018-05-26T02:13:57.925Z,99.90
2018-05-26T02:16:25.563Z,99.90
2018-05-26T02:18:53.228Z,99.90
2018-05-26T02:21:20.838Z,99.90
2018-05-26T02:23:48.458Z,99.90
2018-05-26T02:26:16.053Z,99.90
2018-05-26T02:28:43.772Z,99.90
2018-05-26T02:31:11.355Z,99.90
2018-05-26T02:33:39.723Z,99.90
2018-05-26T02:36:07.339Z,99.90
2018-05-26T02:38:34.937Z,99.90
2018-05-26T02:41:02.550Z,99.90
2018-05-26T02:43:30.143Z,99.90
2018-05-26T02:45:57.735Z,99.90
2018-05-26T02:48:26.114Z,99.90
2018-05-26T02:50:53.718Z,99.90
2018-05-26T02:53:21.302Z,99.90
2018-05-26T02:55:48.974Z,99.90
2018-05-26T02:58:16.578Z,99.90
2018-05-26T03:00:45.127Z,99.90
2018-05-26T03:03:13.076Z,99.90
2018-05-26T03:05:46.507Z,99.90
2018-05-26T03:08:19.650Z,99.90
2018-05-26T03:10:52.863Z,99.90
2018-05-26T03:13:26.980Z,99.90
2018-05-26T03:16:00.141Z,99.90
2018-05-26T03:18:27.724Z,99.90
2018-05-26T03:20:55.312Z,99.90
2018-05-26T03:23:22.913Z,99.90
2018-05-26T03:25:50.502Z,99.90
2018-05-26T03:28:18.112Z,99.90
2018-05-26T03:30:45.783Z,99.90
2018-05-26T03:33:13.390Z,99.90
2018-05-26T03:35:41.014Z,99.90
2018-05-26T03:38:08.602Z,99.90
2018-05-26T03:40:36.168Z,99.90
2018-05-26T03:43:03.797Z,99.90
2018-05-26T03:45:31.393Z,99.90
2018-05-26T03:47:58.968Z,99.90
2018-05-26T03:50:26.553Z,99.90
2018-05-26T03:52:54.162Z,99.90
2018-05-26T03:55:42.368Z,99.90
2018-05-26T03:58:21.799Z,99.90
2018-05-26T04:00:49.351Z,99.90
2018-05-26T04:03:17.783Z,99.90
2018-05-26T04:05:45.449Z,99.90
2018-05-26T04:08:13.068Z,99.90
2018-05-26T04:10:40.651Z,99.90
2018-05-26T04:13:09.128Z,99.90
2018-05-26T04:15:36.792Z,99.90
2018-05-26T04:18:04.390Z,99.90
2018-05-26T04:20:31.990Z,99.90
2018-05-26T04:23:00.351Z,99.90
2018-05-26T04:25:27.948Z,99.90
2018-05-26T04:27:55.537Z,99.90
2018-05-26T04:30:23.129Z,99.90
2018-05-26T04:32:50.716Z,99.90
2018-05-26T04:35:18.370Z,99.90
2018-05-26T04:37:45.939Z,99.90
2018-05-26T04:40:14.308Z,99.90
2018-05-26T04:42:41.922Z,99.90
2018-05-26T04:45:09.527Z,99.90
2018-05-26T04:47:37.223Z,99.90
2018-05-26T04:50:04.825Z,99.90
2018-05-26T04:52:32.420Z,99.90
2018-05-26T04:55:00.046Z,99.90
2018-05-26T04:57:27.664Z,99.90
2018-05-26T04:59:55.243Z,99.90
2018-05-26T05:02:22.863Z,99.90
2018-05-26T05:04:51.207Z,99.90
2018-05-26T05:07:18.818Z,99.90
2018-05-26T05:09:46.542Z,99.90
2018-05-26T05:12:14.944Z,99.90
2018-05-26T05:14:42.510Z,99.90
2018-05-26T05:17:10.939Z,99.90
2018-05-26T05:19:38.604Z,99.90
2018-05-26T05:22:06.343Z,99.90
2018-05-26T05:24:33.977Z,99.90
2018-05-26T05:27:01.598Z,99.90
2018-05-26T05:29:29.205Z,99.90
2018-05-26T05:31:57.575Z,99.90
2018-05-26T05:34:25.920Z,99.90
2018-05-26T05:36:53.506Z,99.90
2018-05-26T05:39:21.868Z,99.90
2018-05-26T05:41:49.419Z,99.90
2018-05-26T05:44:17.010Z,99.90
2018-05-26T05:46:45.381Z,99.90
2018-05-26T05:49:13.714Z,99.90
2018-05-26T05:51:41.377Z,99.90
2018-05-26T05:54:08.959Z,99.90
2018-05-26T05:56:36.548Z,99.90
2018-05-26T05:59:05.151Z,99.90
2018-05-26T06:01:32.536Z,99.90
2018-05-26T06:04:00.166Z,99.90
2018-05-26T06:06:27.799Z,99.90
2018-05-26T06:08:55.390Z,99.90
2018-05-26T06:11:23.021Z,99.90
2018-05-26T06:13:50.595Z,99.90
2018-05-26T06:16:18.296Z,99.90
2018-05-26T06:18:45.950Z,99.90
2018-05-26T06:21:13.522Z,99.90
2018-05-26T06:23:41.083Z,99.90
2018-05-26T06:26:08.664Z,99.90
2018-05-26T06:28:36.270Z,99.90
2018-05-26T06:31:04.618Z,99.90
2018-05-26T06:33:32.241Z,99.90
2018-05-26T06:35:59.902Z,99.90
2018-05-26T06:38:27.431Z,99.90
2018-05-26T06:40:55.826Z,99.90
2018-05-26T06:43:23.442Z,99.90
2018-05-26T06:45:51.073Z,99.90
2018-05-26T06:48:18.665Z,99.90
2018-05-26T06:50:46.581Z,99.90
2018-05-26T06:53:14.911Z,99.90
2018-05-26T06:55:42.524Z,99.90
2018-05-26T06:58:10.114Z,99.90
2018-05-26T07:00:37.711Z,99.90
2018-05-26T07:03:06.081Z,99.90
2018-05-26T07:05:33.673Z,99.90
2018-05-26T07:08:01.316Z,99.90
2018-05-26T07:10:29.653Z,99.90
2018-05-26T07:12:57.221Z,99.90
2018-05-26T07:15:24.841Z,99.90
2018-05-26T07:17:52.478Z,99.90
2018-05-26T07:20:20.060Z,99.90
2018-05-26T07:22:47.710Z,99.90
2018-05-26T07:25:15.335Z,99.90
2018-05-26T07:27:42.958Z,99.90
2018-05-26T07:30:10.553Z,99.90
2018-05-26T07:32:38.223Z,99.90
2018-05-26T07:35:05.835Z,99.90
2018-05-26T07:37:33.493Z,99.90
2018-05-26T07:40:01.094Z,99.90
2018-05-26T07:42:28.660Z,99.90
2018-05-26T07:44:56.320Z,99.90
2018-05-26T07:47:23.944Z,99.90
2018-05-26T07:49:51.552Z,99.90
2018-05-26T07:52:19.168Z,99.90
2018-05-26T07:54:46.798Z,99.90
2018-05-26T07:57:15.200Z,99.90
2018-05-26T07:59:42.765Z,99.90
2018-05-26T08:02:10.349Z,99.90
2018-05-26T08:04:37.906Z,99.90
2018-05-26T08:07:05.520Z,99.90
2018-05-26T08:09:33.149Z,99.90
2018-05-26T08:12:00.776Z,99.90
2018-05-26T08:14:28.358Z,99.90
2018-05-26T08:16:55.973Z,99.90
2018-05-26T08:19:23.605Z,99.90
2018-05-26T08:21:51.220Z,99.90
2018-05-26T08:24:18.855Z,99.90
2018-05-26T08:26:46.526Z,99.90
2018-05-26T08:29:15.052Z,99.90
2018-05-26T08:31:42.670Z,99.90
2018-05-26T08:34:10.256Z,99.90
2018-05-26T08:39:11.828Z,99.90
2018-05-26T08:41:39.381Z,99.90
2018-05-26T08:44:06.995Z,99.90
2018-05-26T08:46:35.375Z,99.90
2018-05-26T08:49:04.361Z,99.90
2018-05-26T08:51:32.768Z,99.90
2018-05-26T08:54:00.390Z,99.90
2018-05-26T08:56:29.511Z,99.90
2018-05-26T08:58:57.924Z,99.90
2018-05-26T09:01:25.504Z,99.90
2018-05-26T09:03:53.076Z,99.90
2018-05-26T09:06:20.723Z,99.90
2018-05-26T09:08:48.287Z,99.90
2018-05-26T09:11:15.938Z,99.90
2018-05-26T09:13:43.546Z,99.90
2018-05-26T09:16:11.921Z,99.90
2018-05-26T09:18:39.590Z,99.90
2018-05-26T09:21:07.930Z,99.90
2018-05-26T09:23:35.489Z,99.90
2018-05-26T09:26:03.079Z,99.90
2018-05-26T09:28:30.648Z,99.90
2018-05-26T09:30:59.024Z,99.90
2018-05-26T09:33:27.363Z,99.90
2018-05-26T09:35:55.007Z,99.90
2018-05-26T09:38:22.649Z,99.90
2018-05-26T09:40:50.270Z,99.90
2018-05-26T09:43:17.865Z,99.90
2018-05-26T09:45:46.793Z,99.90
2018-05-26T09:48:14.397Z,99.90
2018-05-26T09:50:42.806Z,99.90
2018-05-26T09:53:10.409Z,99.90
2018-05-26T09:55:37.992Z,99.90
2018-05-26T09:58:05.597Z,99.90
2018-05-26T10:00:33.164Z,99.90
2018-05-26T10:03:00.765Z,99.60
2018-05-26T10:05:28.362Z,99.60
2018-05-26T10:07:55.963Z,99.90
2018-05-26T10:10:23.558Z,99.30
2018-05-26T10:12:51.134Z,98.90
2018-05-26T10:15:19.566Z,97.80
2018-05-26T10:17:47.153Z,97.80
2018-05-26T10:22:48.668Z,97.10
2018-05-26T10:25:16.288Z,97.70
2018-05-26T10:27:43.878Z,97.40
2018-05-26T10:30:11.541Z,97.40
2018-05-26T10:32:39.216Z,94.40
2018-05-26T10:35:06.814Z,94.40
2018-05-26T10:37:34.390Z,94.50
2018-05-26T10:40:01.999Z,94.70
2018-05-26T10:42:29.629Z,94.50
2018-05-26T10:44:57.979Z,95.10
2018-05-26T10:47:25.538Z,95.10
2018-05-26T10:49:53.193Z,95.50
2018-05-26T10:52:20.834Z,93.30
2018-05-26T10:54:48.431Z,93.00
2018-05-26T10:57:16.058Z,92.10
2018-05-26T10:59:43.656Z,92.40
2018-05-26T11:02:11.241Z,92.00
2018-05-26T11:04:39.614Z,91.70
2018-05-26T11:07:08.049Z,92.30
2018-05-26T11:09:35.697Z,92.30
2018-05-26T11:12:03.292Z,91.30
2018-05-26T11:14:30.876Z,90.60
2018-05-26T11:16:59.256Z,90.90
2018-05-26T11:19:26.856Z,90.90
2018-05-26T11:21:54.468Z,91.00
2018-05-26T11:24:22.862Z,90.90
2018-05-26T11:26:50.463Z,90.80
2018-05-26T11:29:18.040Z,90.50
2018-05-26T11:31:45.632Z,90.20
2018-05-26T11:34:13.261Z,90.40
2018-05-26T11:36:40.931Z,90.10
2018-05-26T11:39:09.180Z,87.60
2018-05-26T11:41:37.033Z,87.60
2018-05-26T11:44:04.674Z,89.80
2018-05-26T11:46:32.238Z,89.30
2018-05-26T11:48:59.827Z,87.30
2018-05-26T11:51:27.444Z,89.50
2018-05-26T11:53:55.815Z,87.80
2018-05-26T11:56:23.423Z,87.80
2018-05-26T11:58:51.026Z,88.00
2018-05-26T12:01:18.700Z,88.70
2018-05-26T12:03:47.071Z,88.10
2018-05-26T12:06:14.671Z,88.00
2018-05-26T12:08:42.385Z,90.10
2018-05-26T12:11:09.984Z,88.00
2018-05-26T12:13:37.584Z,87.70
2018-05-26T12:16:05.155Z,86.90
2018-05-26T12:18:32.832Z,87.20
2018-05-26T12:21:00.458Z,86.00
2018-05-26T12:23:28.057Z,87.20
2018-05-26T12:25:55.798Z,86.40
2018-05-26T12:28:23.436Z,87.90
2018-05-26T12:30:51.112Z,88.90
2018-05-26T12:33:18.737Z,87.60
2018-05-26T12:35:46.382Z,88.20
2018-05-26T12:38:14.716Z,90.30
2018-05-26T12:40:43.132Z,90.30
2018-05-26T12:43:10.728Z,90.20
2018-05-26T12:45:38.348Z,90.50
2018-05-26T12:48:06.737Z,90.50
2018-05-26T12:50:34.405Z,90.50
2018-05-26T12:53:03.663Z,89.20
2018-05-26T12:55:31.267Z,89.10
2018-05-26T12:57:59.744Z,89.60
2018-05-26T13:00:28.072Z,89.50
2018-05-26T13:02:55.634Z,89.60
2018-05-26T13:05:23.223Z,90.40
2018-05-26T13:07:50.796Z,89.10
2018-05-26T13:10:18.411Z,85.10
2018-05-26T13:12:46.674Z,86.10
2018-05-26T13:15:14.275Z,86.20
2018-05-26T13:17:41.886Z,86.00
2018-05-26T13:20:09.493Z,87.20
2018-05-26T13:22:37.131Z,86.00
2018-05-26T13:25:04.687Z,85.70
2018-05-26T13:27:32.253Z,83.70
2018-05-26T13:29:59.852Z,84.50
2018-05-26T13:32:27.438Z,84.00
2018-05-26T13:34:55.034Z,82.30
2018-05-26T13:37:23.502Z,82.20
2018-05-26T13:39:51.122Z,82.20
2018-05-26T13:42:19.494Z,79.90
2018-05-26T13:44:47.858Z,79.90
2018-05-26T13:47:15.467Z,79.90
2018-05-26T13:49:43.059Z,78.90
2018-05-26T13:52:10.720Z,79.20
2018-05-26T13:54:38.425Z,78.50
2018-05-26T13:57:06.651Z,79.30
2018-05-26T13:59:34.273Z,79.20
2018-05-26T14:02:01.888Z,76.40
2018-05-26T14:04:29.497Z,77.20
2018-05-26T14:06:57.856Z,76.30
2018-05-26T14:09:25.434Z,76.20
2018-05-26T14:11:53.100Z,75.00
2018-05-26T14:14:22.193Z,75.30
2018-05-26T14:16:50.549Z,75.20
2018-05-26T14:19:18.204Z,75.10
2018-05-26T14:21:46.341Z,76.00
2018-05-26T14:24:13.937Z,75.20
2018-05-26T14:26:41.555Z,74.90
2018-05-26T14:29:09.216Z,75.90
2018-05-26T14:31:36.960Z,75.80
2018-05-26T14:34:04.619Z,74.80
2018-05-26T14:36:32.992Z,74.70
2018-05-26T14:39:01.298Z,72.80
2018-05-26T14:41:28.863Z,72.70
2018-05-26T14:43:56.504Z,72.80
2018-05-26T14:46:24.063Z,72.40
2018-05-26T14:48:52.474Z,71.80
2018-05-26T14:51:20.062Z,71.90
2018-05-26T14:53:47.689Z,72.80
2018-05-26T14:56:16.105Z,73.90
2018-05-26T14:58:43.735Z,74.90
2018-05-26T15:01:11.355Z,75.40
2018-05-26T15:03:38.931Z,73.30
2018-05-26T15:06:06.537Z,72.30
2018-05-26T15:08:34.131Z,71.60
2018-05-26T15:11:01.736Z,72.10
2018-05-26T15:13:29.387Z,71.10
2018-05-26T15:15:56.970Z,70.70
2018-05-26T15:18:24.665Z,71.60
2018-05-26T15:20:52.296Z,72.80
2018-05-26T15:23:19.932Z,70.40
2018-05-26T15:25:47.631Z,71.00
2018-05-26T15:28:15.265Z,70.80
2018-05-26T15:30:42.827Z,71.10
2018-05-26T15:33:10.459Z,72.50
2018-05-26T15:35:38.536Z,72.40
2018-05-26T15:38:06.195Z,72.60
2018-05-26T15:40:34.570Z,73.00
2018-05-26T15:43:02.162Z,72.70
2018-05-26T15:45:29.767Z,72.50
2018-05-26T15:47:57.363Z,73.80
2018-05-26T15:50:24.980Z,72.80
2018-05-26T15:52:52.572Z,72.10
2018-05-26T15:55:20.242Z,72.80
2018-05-26T15:57:48.588Z,73.40
2018-05-26T16:00:16.163Z,72.90
2018-05-26T16:02:44.765Z,74.50
2018-05-26T16:05:12.482Z,74.50
2018-05-26T16:07:40.080Z,73.50
2018-05-26T16:10:07.802Z,74.10
2018-05-26T16:12:35.922Z,72.90
2018-05-26T16:15:03.501Z,73.00
2018-05-26T16:17:31.096Z,72.90
2018-05-26T16:19:59.521Z,73.20
2018-05-26T16:22:27.889Z,71.30
2018-05-26T16:24:56.236Z,71.30
2018-05-26T16:27:24.104Z,73.00
2018-05-26T16:29:51.709Z,74.20
2018-05-26T16:32:19.266Z,73.80
2018-05-26T16:34:47.639Z,74.30
2018-05-26T16:37:15.213Z,74.30
2018-05-26T16:39:42.815Z,74.30
2018-05-26T16:42:10.670Z,75.10
2018-05-26T16:44:38.385Z,75.30
2018-05-26T16:47:06.752Z,76.30
2018-05-26T16:49:34.352Z,76.30
2018-05-26T16:52:01.954Z,76.90
2018-05-26T16:54:29.580Z,77.60
2018-05-26T16:56:57.207Z,79.10
2018-05-26T16:59:24.795Z,77.60
2018-05-26T17:01:52.452Z,77.50
2018-05-26T17:04:20.044Z,76.80
2018-05-26T17:06:48.783Z,74.80
2018-05-26T17:09:17.156Z,72.40
2018-05-26T17:11:44.865Z,71.50
2018-05-26T17:14:12.506Z,69.10
2018-05-26T17:16:40.143Z,69.80
2018-05-26T17:19:08.505Z,64.90
2018-05-26T17:21:36.472Z,64.80
2018-05-26T17:24:04.093Z,62.80
2018-05-26T17:26:31.742Z,62.20
2018-05-26T17:28:59.314Z,62.20
2018-05-26T17:31:26.968Z,61.70
2018-05-26T17:33:54.626Z,61.20
2018-05-26T17:36:23.100Z,61.30
2018-05-26T17:38:50.657Z,61.60
2018-05-26T17:41:18.232Z,61.10
2018-05-26T17:43:45.828Z,61.40
2018-05-26T17:46:14.061Z,60.20
2018-05-26T17:48:41.668Z,59.90
2018-05-26T17:51:09.283Z,60.00
2018-05-26T17:53:37.711Z,60.30
2018-05-26T17:56:05.470Z,60.30
2018-05-26T17:58:33.067Z,60.00
2018-05-26T18:01:00.703Z,60.70
2018-05-26T18:03:28.303Z,62.10
2018-05-26T18:05:55.939Z,62.70
2018-05-26T18:08:24.335Z,66.50
2018-05-26T18:10:52.945Z,68.10
2018-05-26T18:13:20.519Z,68.00
2018-05-26T18:15:49.076Z,69.20
2018-05-26T18:18:16.729Z,70.60
2018-05-26T18:20:44.320Z,71.50
2018-05-26T18:23:11.880Z,72.70
2018-05-26T18:25:39.470Z,73.90
2018-05-26T18:28:07.997Z,74.80
2018-05-26T18:30:35.631Z,75.60
2018-05-26T18:33:03.976Z,76.90
2018-05-26T18:35:31.548Z,76.90
2018-05-26T18:37:59.153Z,77.60
2018-05-26T18:40:26.725Z,77.80
2018-05-26T18:42:54.357Z,78.20
2018-05-26T18:45:21.920Z,78.50
2018-05-26T18:47:49.546Z,78.70
2018-05-26T18:50:17.172Z,78.90
2018-05-26T18:52:44.765Z,79.60
2018-05-26T18:55:12.396Z,79.60
2018-05-26T18:57:40.014Z,80.00
2018-05-26T19:00:08.412Z,80.60
2018-05-26T19:02:36.027Z,80.60
2018-05-26T19:05:03.800Z,81.10
2018-05-26T19:07:31.396Z,81.50
2018-05-26T19:10:00.010Z,81.70
2018-05-26T19:12:27.612Z,81.70
2018-05-26T19:14:55.237Z,81.80
2018-05-26T19:17:22.844Z,82.00
2018-05-26T19:19:50.474Z,82.10
2018-05-26T19:22:18.217Z,82.20
2018-05-26T19:24:46.182Z,82.50
2018-05-26T19:27:13.782Z,82.60
2018-05-26T19:29:41.475Z,82.80
2018-05-26T19:32:09.839Z,82.90
2018-05-26T19:34:37.501Z,82.90
2018-05-26T19:37:05.137Z,83.00
2018-05-26T19:39:32.695Z,82.90
2018-05-26T19:42:00.295Z,83.30
2018-05-26T19:44:28.695Z,83.80
2018-05-26T19:46:56.330Z,83.80
2018-05-26T19:49:24.700Z,84.60
2018-05-26T19:51:52.411Z,83.70
2018-05-26T19:54:20.033Z,84.30
2018-05-26T19:56:48.451Z,84.40
2018-05-26T19:59:16.035Z,84.40
2018-05-26T20:01:43.600Z,84.50
2018-05-26T20:04:11.239Z,84.40
2018-05-26T20:06:38.871Z,84.80
2018-05-26T20:09:06.502Z,85.10
2018-05-26T20:11:34.181Z,85.10
2018-05-26T20:14:02.585Z,85.40
2018-05-26T20:16:30.174Z,85.30
2018-05-26T20:18:57.731Z,85.60
2018-05-26T20:21:25.450Z,85.90
2018-05-26T20:23:53.842Z,86.30
2018-05-26T20:26:22.456Z,86.10
2018-05-26T20:28:50.051Z,86.50
2018-05-26T20:31:17.752Z,86.70
2018-05-26T20:33:45.474Z,87.10
2018-05-26T20:36:13.164Z,87.00
2018-05-26T20:38:42.400Z,87.00
2018-05-26T20:41:10.047Z,86.90
2018-05-26T20:43:37.683Z,87.30
2018-05-26T20:46:05.343Z,87.40
2018-05-26T20:48:32.940Z,87.80
2018-05-26T20:51:00.518Z,88.00
2018-05-26T20:53:28.182Z,88.20
2018-05-26T20:55:55.772Z,88.40
2018-05-26T20:58:23.378Z,88.60
2018-05-26T21:00:51.023Z,88.80
2018-05-26T21:03:18.677Z,89.00
2018-05-26T21:05:46.359Z,89.20
2018-05-26T21:08:14.878Z,89.50
2018-05-26T21:10:42.440Z,89.50
2018-05-26T21:13:10.052Z,89.80
2018-05-26T21:15:38.431Z,90.00
2018-05-26T21:18:06.818Z,90.00
2018-05-26T21:20:34.366Z,90.00
2018-05-26T21:23:02.792Z,90.60
2018-05-26T21:25:30.499Z,90.50
2018-05-26T21:27:58.818Z,90.60
2018-05-26T21:30:26.427Z,90.60
2018-05-26T21:32:54.033Z,90.80
2018-05-26T21:35:21.674Z,91.00
2018-05-26T21:37:49.273Z,90.90
2018-05-26T21:40:16.878Z,91.10
2018-05-26T21:42:45.239Z,91.20
2018-05-26T21:45:12.842Z,91.20
2018-05-26T21:47:40.471Z,91.40
2018-05-26T21:50:08.075Z,91.50
2018-05-26T21:52:35.703Z,91.30
2018-05-26T21:55:03.342Z,91.80
2018-05-26T21:57:30.984Z,91.80
2018-05-26T21:59:58.548Z,91.90
2018-05-26T22:02:26.172Z,92.00
2018-05-26T22:04:53.767Z,92.00
2018-05-26T22:07:21.344Z,92.10
2018-05-26T22:09:49.008Z,92.10
2018-05-26T22:12:16.620Z,91.90
2018-05-26T22:14:44.249Z,92.10
2018-05-26T22:17:11.905Z,92.00
2018-05-26T22:19:39.489Z,92.20
2018-05-26T22:22:07.859Z,92.40
2018-05-26T22:24:35.535Z,92.40
2018-05-26T22:27:03.108Z,92.40
2018-05-26T22:29:30.706Z,92.40
2018-05-26T22:31:58.415Z,92.60
2018-05-26T22:34:26.037Z,92.70
2018-05-26T22:36:53.673Z,92.70
2018-05-26T22:39:21.245Z,92.90
2018-05-26T22:41:48.859Z,93.10
2018-05-26T22:44:16.463Z,93.20
2018-05-26T22:46:44.084Z,93.30
2018-05-26T22:49:12.461Z,93.60
2018-05-26T22:51:40.088Z,93.60
2018-05-26T22:54:07.644Z,93.80
2018-05-26T22:56:35.269Z,93.90
2018-05-26T22:59:02.885Z,94.00
2018-05-26T23:01:31.286Z,94.30
2018-05-26T23:03:58.846Z,94.30
2018-05-26T23:06:26.451Z,94.40
2018-05-26T23:08:54.137Z,94.60
2018-05-26T23:11:21.738Z,94.80
2018-05-26T23:13:49.320Z,95.00
2018-05-26T23:16:16.945Z,95.10
2018-05-26T23:18:45.287Z,95.50
2018-05-26T23:21:12.912Z,95.50
2018-05-26T23:23:40.510Z,95.60
2018-05-26T23:26:08.132Z,95.80
2018-05-26T23:28:35.722Z,95.90
2018-05-26T23:31:03.319Z,96.10
2018-05-26T23:33:31.760Z,96.40
2018-05-26T23:35:59.358Z,96.40
2018-05-26T23:38:27.694Z,96.80
2018-05-26T23:40:55.299Z,96.80
2018-05-26T23:43:23.671Z,97.00
2018-05-26T23:45:51.351Z,97.00
2018-05-26T23:48:18.936Z,97.10
2018-05-26T23:50:47.095Z,97.20
2018-05-26T23:53:14.725Z,97.40
2018-05-26T23:55:42.314Z,97.60
2018-05-26T23:58:09.938Z,97.70
